Latest Weather Observations for Dalby

IDQ60801

Issued at 9:32 pm EST Saturday 3 December 2016 (issued every 30 minutes, with the page automatically refreshed every 10 minutes)

About weather observations | Map of weather stations | Latest weather observations for QLD | Other Formats
Station Details ID: 041522 Name: DALBY AIRPORT Lat: -27.16 Lon: 151.26 Height: 343.9 m
Data from the previous 72 hours. | See also: Recent months at Dalby
Date/Time
EST
Temp
°C
App
Temp
°C
Dew
Point
°C
Rel
Hum
%
Delta-T
°C
Wind Press
QNH
hPa
Press
MSL
hPa
Rain since
9am
mm
Dir  Spd
km/h
Gust
km/h
Spd
kts
Gust
kts
03/09:00pm 24.0 20.6 18.2 70 3.7 ENE 33 44 18 24 1015.1 1013.1 0.6
03/08:30pm 24.8 20.2 17.0 62 4.9 ENE 37 46 20 25 1013.9 1012.0 0.6
03/08:00pm 25.1 20.9 17.1 61 5.0 E 35 46 19 25 1013.1 1011.2 0.6
03/07:30pm 26.2 22.2 16.7 56 6.0 E 33 50 18 27 1012.4 1010.4 0.6
03/07:25pm 27.1 24.3 16.4 52 6.7 E 26 50 14 27 1012.0 1010.0 0.6
03/07:00pm 28.2 28.4 14.1 42 8.6 W 6 11 3 6 1010.7 1008.8 0.6
03/06:30pm 31.5 28.2 10.8 28 12.1 NNW 19 24 10 13 1009.7 1007.7 0.6
03/06:00pm 31.8 31.8 15.3 37 10.4 NW 9 17 5 9 1009.0 1007.0 0.6
03/05:30pm 32.7 30.8 11.8 28 12.5 N 13 26 7 14 1008.9 1006.9 0.6
03/05:19pm 29.6 21.1 12.1 34 10.4 WSW 48 104 26 56 1009.9 1007.9 0.4
03/05:15pm 31.2 22.1 12.5 31 11.2 SW 52 104 28 56 1009.8 1007.8 0.0
03/05:07pm 34.1 27.7 8.7 21 14.5 W 32 78 17 42 1009.8 1007.8 0.0
03/05:06pm 36.4 30.5 7.4 17 16.5 WNW 28 78 15 42 1009.5 1007.5 0.0
03/05:00pm 38.2 32.1 5.0 13 18.4 NW 26 35 14 19 1008.2 1006.3 0.0
03/04:30pm 39.0 33.1 5.6 13 18.7 NW 26 39 14 21 1008.1 1006.2 0.0
03/04:00pm 39.5 34.0 6.0 13 18.9 NW 24 33 13 18 1007.9 1006.0 0.0
03/03:30pm 40.4 34.4 5.5 12 19.6 NW 26 35 14 19 1008.2 1006.3 0.0
03/03:00pm 40.6 35.2 7.9 14 19.1 NNW 26 39 14 21 1008.9 1006.9 0.0
03/02:30pm 39.8 35.4 7.3 14 18.7 NW 20 39 11 21 1009.9 1007.9 0.0
03/02:00pm 39.4 33.8 7.0 14 18.5 NW 26 43 14 23 1010.5 1008.6 0.0
03/01:30pm 39.0 35.1 9.5 17 17.5 NW 20 32 11 17 1011.0 1009.1 0.0
03/01:00pm 38.0 33.8 11.1 20 16.2 NNW 24 44 13 24 1011.5 1009.6 0.0
03/12:30pm 37.7 34.2 12.3 22 15.6 NNW 22 33 12 18 1012.2 1010.2 0.0
03/12:00pm 37.0 33.0 11.8 22 15.3 NNW 24 39 13 21 1012.7 1010.7 0.0
03/11:30am 37.0 33.4 14.3 26 14.3 NNW 26 39 14 21 1013.1 1011.2 0.0
03/11:00am 36.0 32.5 13.5 26 13.9 NNW 24 37 13 20 1013.4 1011.5 0.0
03/10:30am 34.4 32.3 15.3 31 12.1 N 20 33 11 18 1013.8 1011.9 0.0
03/10:00am 33.0 30.5 14.1 32 11.7 N 20 32 11 17 1014.3 1012.4 0.0
03/09:30am 32.3 30.0 15.7 36 10.5 NNW 22 32 12 17 1014.5 1012.6 0.0
03/09:00am 31.4 29.2 16.9 41 9.3 N 24 33 13 18 1014.7 1012.8 0.0
03/08:30am 30.3 27.9 17.4 46 8.3 NNW 26 35 14 19 1014.9 1012.9 0.0
03/08:00am 29.5 27.3 17.0 47 8.0 NNW 24 32 13 17 1014.9 1012.9 0.0
03/07:30am 28.5 26.9 17.4 51 7.1 N 22 32 12 17 1014.5 1012.6 0.0
03/07:00am 26.2 27.2 18.6 63 4.9 NNW 11 15 6 8 1014.5 1012.6 0.0
03/06:30am 25.2 27.3 18.9 68 4.1 NE 6 7 3 4 1014.2 1012.3 0.0
03/06:00am 23.9 25.6 19.4 76 2.9 ESE 9 9 5 5 1014.0 1012.1 0.0
03/05:30am 22.3 24.3 19.1 82 2.1 SSE 7 9 4 5 1013.8 1011.9 0.0
03/05:00am 21.2 21.4 18.6 85 1.7 ESE 15 17 8 9 1012.9 1010.9 0.0
03/04:30am 20.9 21.9 17.7 82 2.0 ESE 9 13 5 7 1012.4 1010.4 0.0
03/04:00am 21.7 21.6 17.9 79 2.4 ESE 15 15 8 8 1012.0 1010.0 0.0
03/03:30am 22.1 22.8 17.9 77 2.6 ENE 11 13 6 7 1011.4 1009.5 0.0
03/03:00am 22.1 23.2 17.9 77 2.6 NE 9 11 5 6 1011.5 1009.6 0.0
03/02:30am 21.7 22.6 17.5 77 2.6 ENE 9 11 5 6 1011.5 1009.6 0.0
03/02:00am 21.8 21.9 17.4 76 2.8 ESE 13 15 7 8 1011.4 1009.5 0.0
03/01:30am 22.0 22.4 16.3 70 3.5 ESE 9 11 5 6 1011.5 1009.6 0.0
03/01:00am 23.2 23.7 16.5 66 4.2 SE 9 13 5 7 1011.6 1009.7 0.0
03/12:30am 24.9 26.6 18.1 66 4.3 SE 6 7 3 4 1011.8 1009.8 0.0
03/12:00am 25.3 25.7 17.2 61 5.1 E 11 17 6 9 1011.8 1009.8 0.0
 
Date/Time
EST
Temp
°C
App
Temp
°C
Dew
Point
°C
Rel
Hum
%
Delta-T
°C
Wind Press
QNH
hPa
Press
MSL
hPa
Rain since
9am
mm
Dir  Spd
km/h
Gust
km/h
Spd
kts
Gust
kts
02/11:30pm 27.0 26.7 18.3 59 5.6 NNE 17 22 9 12 1012.0 1010.0 0.0
02/11:00pm 27.2 26.7 17.9 56 6.0 N 17 20 9 11 1012.2 1010.2 0.0
02/10:30pm 24.8 23.7 14.3 52 6.3 NNE 13 17 7 9 1012.4 1010.4 0.0
02/10:00pm 24.1 22.4 11.1 44 7.4 ENE 11 13 6 7 1012.4 1010.4 0.0
02/09:30pm 25.1 22.2 9.8 38 8.5 E 15 20 8 11 1012.1 1010.1 0.0
02/09:00pm 25.2 23.2 10.3 39 8.4 ESE 11 13 6 7 1011.6 1009.7 0.0
02/08:30pm 26.7 23.7 7.7 30 10.3 SE 13 15 7 8 1011.5 1009.6 0.0
02/08:23pm 26.4 23.7 7.4 30 10.3 SE 11 15 6 8 1011.4 1009.5 0.0
02/08:00pm 31.4 28.4 4.2 18 14.3 SSE 9 11 5 6 1011.2 1009.3 0.0
02/07:30pm 32.2 28.8 4.1 17 14.8 S 11 15 6 8 1010.8 1008.9 0.0
02/07:00pm 33.3 30.1 3.2 15 15.8 S 9 13 5 7 1010.4 1008.4 0.0
02/06:30pm 34.6 30.9 2.2 13 16.8 SSE 11 15 6 8 1010.2 1008.2 0.0
02/06:00pm 36.2 32.5 2.3 12 17.8 SSE 11 17 6 9 1009.8 1007.8 0.0
02/05:30pm 37.0 32.4 1.7 11 18.4 S 15 20 8 11 1009.5 1007.5 0.0
02/05:00pm 37.5 32.8 3.3 12 18.4 ESE 17 22 9 12 1009.1 1007.1 0.0
02/04:30pm 37.8 34.3 3.5 12 18.5 S 11 17 6 9 1008.9 1006.9 0.0
02/04:00pm 37.6 32.9 3.4 12 18.4 S 17 24 9 13 1008.9 1006.9 0.0
02/03:30pm 37.3 34.1 3.1 12 18.2 SE 9 19 5 10 1008.9 1006.9 0.0
02/03:00pm 37.6 33.3 3.4 12 18.4 S 15 24 8 13 1008.9 1006.9 0.0
02/02:30pm 38.9 34.7 5.5 13 18.6 SE 17 30 9 16 1009.1 1007.1 0.0
02/02:00pm 38.0 35.5 4.8 13 18.3 SE 7 20 4 11 1009.4 1007.4 0.0
02/01:30pm 38.0 34.7 4.8 13 18.2 S 11 20 6 11 1009.8 1007.8 0.0
02/01:00pm 37.4 33.5 5.4 14 17.7 NW 15 32 8 17 1010.3 1008.3 0.0
02/12:30pm 38.0 33.8 3.7 12 18.5 SW 15 32 8 17 1010.5 1008.6 0.0
02/12:00pm 36.4 33.5 4.6 14 17.3 SSW 9 17 5 9 1010.8 1008.9 0.0
02/11:30am 35.4 32.0 3.9 14 16.8 SW 11 24 6 13 1011.2 1009.3 0.0
02/11:00am 35.0 32.4 9.4 21 14.9 WNW 13 24 7 13 1011.4 1009.5 0.0
02/10:30am 33.0 30.8 10.9 26 13.0 N 13 20 7 11 1011.6 1009.7 0.0
02/10:00am 32.5 30.1 12.7 30 12.0 NNW 17 28 9 15 1012.0 1010.0 0.0
02/09:30am 30.3 28.0 14.0 37 10.0 NNW 19 24 10 13 1012.2 1010.2 0.0
02/09:00am 28.9 26.4 15.1 43 8.5 NNW 22 28 12 15 1012.4 1010.4 0.0
02/08:30am 28.0 25.2 15.3 46 7.9 NNW 24 32 13 17 1012.4 1010.4 0.0
02/08:00am 26.7 24.1 16.0 52 6.7 NNW 24 32 13 17 1012.7 1010.7 0.0
02/07:30am 25.2 22.3 16.1 57 5.6 NNW 26 33 14 18 1012.8 1010.8 0.0
02/07:00am 24.2 22.0 17.0 64 4.5 NNW 24 32 13 17 1012.7 1010.7 0.0
02/06:30am 22.4 22.9 17.5 74 3.1 NNW 11 19 6 10 1012.6 1010.6 0.0
02/06:00am 19.7 21.0 16.2 80 2.1 NNE 4 7 2 4 1012.2 1010.2 0.0
02/05:30am 18.2 19.0 14.9 81 1.9 NNW 4 7 2 4 1012.0 1010.0 0.0
02/05:00am 17.4 17.8 14.7 84 1.6 NNW 6 7 3 4 1011.5 1009.6 0.0
02/04:30am 17.7 17.5 14.6 82 1.8 WNW 9 13 5 7 1011.2 1009.3 0.0
02/04:00am 18.3 18.1 14.6 79 2.2 W 9 11 5 6 1011.1 1009.2 0.0
02/03:30am 18.7 18.5 14.8 78 2.3 SW 9 13 5 7 1010.8 1008.9 0.0
02/03:00am 19.7 19.4 15.4 76 2.6 N 11 15 6 8 1010.0 1008.0 0.0
02/02:30am 19.1 19.5 14.8 76 2.5 ESE 6 7 3 4 1010.2 1008.2 0.0
02/02:00am 19.5 18.9 14.7 74 2.8 NNE 11 13 6 7 1010.2 1008.2 0.0
02/01:30am 20.2 19.9 14.3 69 3.5 NNE 9 17 5 9 1010.2 1008.2 0.0
02/01:00am 21.7 21.5 14.8 65 4.1 NNE 9 13 5 7 1010.2 1008.2 0.0
02/12:30am 22.2 21.8 15.3 65 4.2 NNE 11 17 6 9 1010.2 1008.2 0.0
02/12:00am 23.4 22.9 16.0 63 4.6 NE 13 19 7 10 1010.3 1008.3 0.0
 
Date/Time
EST
Temp
°C
App
Temp
°C
Dew
Point
°C
Rel
Hum
%
Delta-T
°C
Wind Press
QNH
hPa
Press
MSL
hPa
Rain since
9am
mm
Dir  Spd
km/h
Gust
km/h
Spd
kts
Gust
kts
01/11:30pm 23.4 22.6 16.2 64 4.4 NNE 15 22 8 12 1010.2 1008.2 0.0
01/11:00pm 23.6 23.3 16.4 64 4.5 NNE 13 17 7 9 1010.2 1008.2 0.0
01/10:30pm 24.4 23.0 16.6 61 4.9 NNE 19 26 10 14 1010.2 1008.2 0.0
01/10:00pm 22.9 22.3 14.7 60 4.9 ENE 11 15 6 8 1010.2 1008.2 0.0
01/09:30pm 24.1 21.5 13.9 53 6.1 ENE 20 22 11 12 1009.9 1007.9 0.0
01/09:00pm 23.6 21.2 12.6 50 6.4 ENE 17 19 9 10 1009.6 1007.6 0.0
01/08:30pm 24.8 21.4 10.7 41 8.0 E 19 20 10 11 1009.0 1007.0 0.0
01/08:00pm 23.7 21.5 10.7 44 7.3 ENE 13 15 7 8 1008.7 1006.7 0.0
01/07:30pm 25.4 22.8 9.3 36 8.9 ENE 13 15 7 8 1008.1 1006.2 0.0
01/07:00pm 26.9 24.3 9.3 33 9.9 ESE 13 13 7 7 1007.7 1005.7 0.0
01/06:30pm 29.2 26.3 8.3 27 11.6 ESE 13 15 7 8 1007.3 1005.3 0.0
01/06:00pm 32.9 29.4 5.5 18 14.9 SSE 13 19 7 10 1006.6 1004.6 0.0
01/05:30pm 33.9 29.1 4.6 16 15.7 S 19 24 10 13 1006.0 1004.0 0.0
01/05:00pm 32.1 28.3 5.6 19 14.4 SE 15 20 8 11 1005.9 1003.9 0.0
01/04:30pm 30.9 27.1 9.7 27 12.2 S 20 44 11 24 1005.9 1003.9 0.0
01/04:23pm 33.4 27.5 7.4 20 14.5 SW 28 50 15 27 1006.2 1004.2 0.0
01/04:20pm 34.3 28.1 2.0 13 16.7 WSW 24 50 13 27 1006.2 1004.2 0.0
01/04:00pm 35.5 30.2 2.9 13 17.2 W 20 39 11 21 1005.8 1003.8 0.0
01/03:30pm 36.4 30.3 2.5 12 17.8 W 24 33 13 18 1005.8 1003.8 0.0
01/03:00pm 36.9 31.0 4.0 13 17.8 W 24 41 13 22 1006.3 1004.3 0.0
01/02:30pm 36.0 30.9 6.2 16 16.6 WNW 22 33 12 18 1006.8 1004.8 0.0
01/02:00pm 35.7 30.0 8.5 19 15.7 WNW 28 39 15 21 1007.4 1005.4 0.0
01/01:30pm 35.6 29.9 9.9 21 15.1 WNW 30 43 16 23 1007.9 1006.0 0.0
01/01:10pm 34.5 28.8 8.3 20 14.9 NW 28 48 15 26 1008.0 1006.1 0.0
01/01:00pm 34.3 28.9 9.5 22 14.4 NW 28 44 15 24 1008.3 1006.4 0.0
01/12:31pm 33.8 28.3 10.4 24 13.7 NW 30 48 16 26 1008.8 1006.8 0.0
01/12:30pm 34.1 28.4 11.3 25 13.6 NW 32 48 17 26 1008.8 1006.8 0.0
01/12:18pm 34.2 29.3 11.4 25 13.6 NW 28 46 15 25 1008.9 1006.9 0.0
01/12:00pm 33.7 28.3 12.1 27 13.0 NNW 32 46 17 25 1009.2 1007.2 0.0
01/11:30am 32.4 28.1 12.1 29 12.2 NNW 26 41 14 22 1009.8 1007.8 0.0
01/11:00am 31.5 27.4 13.7 33 10.9 NNW 28 41 15 22 1010.3 1008.3 0.0
01/10:30am 30.2 25.0 13.5 36 10.1 NNW 33 50 18 27 1010.7 1008.8 0.0
01/10:24am 30.1 24.8 12.5 34 10.5 NNW 32 50 17 27 1010.7 1008.8 0.0
01/10:00am 29.0 24.1 13.6 38 9.3 NNW 32 43 17 23 1011.0 1009.1 0.0
01/09:30am 28.1 23.3 14.0 42 8.5 N 32 41 17 22 1011.4 1009.7 0.0
01/09:00am 26.4 22.0 14.2 47 7.4 N 30 35 16 19 1012.0 1010.2 0.0
01/08:30am 25.4 21.7 15.1 53 6.3 N 28 37 15 20 1012.4 1010.6 0.0
01/08:00am 23.6 20.1 14.6 57 5.4 N 26 33 14 18 1013.1 1011.4 0.0
01/07:30am 22.8 19.8 14.9 61 4.8 N 24 35 13 19 1013.4 1011.7 0.0
01/07:00am 21.8 18.8 14.9 65 4.1 NNW 24 32 13 17 1013.5 1011.8 0.0
01/06:30am 20.1 20.6 14.9 72 3.1 NNW 6 9 3 5 1012.6 1010.9 0.0
01/06:00am 19.4 19.9 15.1 76 2.6 ESE 6 7 3 4 1012.1 1010.3 0.0
01/05:30am 18.4 17.6 15.1 81 2.0 NE 13 19 7 10 1011.2 1009.5 0.0
01/05:00am 18.3 17.2 15.4 83 1.7 N 15 19 8 10 1010.9 1009.2 0.0
01/04:30am 17.7 17.3 15.1 85 1.5 N 11 13 6 7 1010.8 1009.1 0.0
01/04:00am 17.7 17.3 15.1 85 1.5 NNE 11 13 6 7 1010.6 1008.9 0.0
01/03:30am 17.6 17.3 14.3 81 1.9 N 9 11 5 6 1010.4 1008.7 0.0
01/03:00am 18.2 18.9 14.5 79 2.2 NNE 4 7 2 4 1010.2 1008.5 0.0
01/02:30am 17.8 16.1 14.7 82 1.8 NNW 17 20 9 11 1009.8 1008.0 0.0
01/02:00am 17.3 17.1 13.6 79 2.1 NE 7 11 4 6 1009.9 1008.1 0.0
01/01:30am 18.2 19.3 13.5 74 2.7 CALM 0 0 0 0 1010.6 1008.9 0.0
01/01:00am 18.5 16.8 13.6 73 2.8 NE 15 20 8 11 1010.5 1008.8 0.0
01/12:30am 19.6 17.0 13.8 69 3.4 N 20 26 11 14 1011.1 1009.4 0.0
01/12:00am 19.2 18.5 14.2 73 2.9 NNW 11 17 6 9 1011.8 1010.0 0.0
 
Date/Time
EST
Temp
°C
App
Temp
°C
Dew
Point
°C
Rel
Hum
%
Delta-T
°C
Wind Press
QNH
hPa
Press
MSL
hPa
Rain since
9am
mm
Dir  Spd
km/h
Gust
km/h
Spd
kts
Gust
kts
30/11:30pm 18.3 18.0 13.2 72 2.9 NNE 7 9 4 5 1012.1 1010.3 0.0
30/11:00pm 18.8 17.7 13.0 69 3.3 ENE 11 15 6 8 1012.4 1010.6 0.0
30/10:30pm 19.3 16.5 13.3 68 3.5 E 20 24 11 13 1012.2 1010.4 0.0
30/10:00pm 19.8 16.2 13.0 65 3.9 E 24 30 13 16 1012.0 1010.2 0.0

Other Formats:

Comma delimited format used in spreadsheet applications
http://www.bom.gov.au/fwo/IDQ60801/IDQ60801.94542.axf

JavaScript Object Notation format (JSON) in row-major order
http://www.bom.gov.au/fwo/IDQ60801/IDQ60801.94542.json